Time;durP1;ratioP1;P1;durP2;ratioP2;P2;SDS_P1;SDS_P2;PMS_P1;PMS_P2;Temp;Humidity;BMP_temperature;BMP_pressure;BME280_temperature;BME280_humidity;BME280_pressure;Samples;Min_cycle;Max_cycle;Signal;HPM_P1;HPM_P2
2023/07/16 00:02:19;;;;;;;;;2.25;2.00;;;;;;;;5070338;28;8911;-75
2023/07/16 00:04:45;;;;;;;;;3.00;3.00;;;;;;;;5070630;28;8889;-74
2023/07/16 00:07:10;;;;;;;;;3.25;3.25;;;;;;;;5070078;28;8800;-73
2023/07/16 00:09:35;;;;;;;;;3.00;3.00;;;;;;;;5070077;28;8889;-73
2023/07/16 00:12:01;;;;;;;;;4.00;3.00;;;;;;;;5069034;28;8864;-74
2023/07/16 00:14:26;;;;;;;;;5.00;4.00;;;;;;;;5072838;28;8808;-74
2023/07/16 00:16:51;;;;;;;;;2.75;2.75;;;;;;;;5073584;28;8818;-75
2023/07/16 00:19:16;;;;;;;;;4.50;4.50;;;;;;;;5072463;28;8822;-74
2023/07/16 00:21:42;;;;;;;;;4.75;2.75;;;;;;;;5073920;28;8816;-75
2023/07/16 00:24:07;;;;;;;;;1.50;1.50;;;;;;;;5073451;28;8899;-73
2023/07/16 00:26:32;;;;;;;;;5.25;3.50;;;;;;;;5073244;28;8800;-74
2023/07/16 00:28:57;;;;;;;;;4.00;3.00;;;;;;;;5073473;28;8862;-75
2023/07/16 00:31:23;;;;;;;;;3.75;3.75;;;;;;;;5073506;28;8866;-74
2023/07/16 00:33:48;;;;;;;;;5.25;4.00;;;;;;;;5073340;28;8808;-73
2023/07/16 00:36:13;;;;;;;;;4.00;4.00;;;;;;;;5073041;28;8899;-72
2023/07/16 00:38:40;;;;;;;;;2.00;2.00;;;;;;;;5072856;28;8784;-72
2023/07/16 00:41:05;;;;;;;;;4.25;4.25;;;;;;;;5073282;28;8899;-72
2023/07/16 00:43:30;;;;;;;;;4.00;4.00;;;;;;;;5072088;28;9620;-72
2023/07/16 00:45:55;;;;;;;;;5.50;4.50;;;;;;;;5073428;28;8906;-72
2023/07/16 00:48:21;;;;;;;;;5.25;3.50;;;;;;;;5073256;28;8959;-72
2023/07/16 00:50:46;;;;;;;;;4.00;3.25;;;;;;;;5072832;28;8796;-73
2023/07/16 00:53:12;;;;;;;;;5.50;3.75;;;;;;;;5071480;28;8820;-72
2023/07/16 00:55:38;;;;;;;;;7.00;4.50;;;;;;;;5071792;28;8804;-72
2023/07/16 00:58:07;;;;;;;;;6.00;4.25;;;;;;;;5072929;28;9588;-72
2023/07/16 01:00:33;;;;;;;;;7.50;4.25;;;;;;;;5073115;28;9628;-73
2023/07/16 01:02:58;;;;;;;;;4.25;4.00;;;;;;;;5072720;28;9735;-72
2023/07/16 01:05:24;;;;;;;;;3.75;3.75;;;;;;;;5072766;28;11497;-72
2023/07/16 01:07:59;;;;;;;;;3.00;3.00;;;;;;;;5072618;28;8931;-72
2023/07/16 01:10:25;;;;;;;;;4.00;3.00;;;;;;;;5072847;28;9702;-72
2023/07/16 01:12:52;;;;;;;;;5.00;3.00;;;;;;;;5072985;28;9837;-72
2023/07/16 01:15:17;;;;;;;;;4.25;3.50;;;;;;;;5072300;28;9646;-72
2023/07/16 01:17:43;;;;;;;;;4.50;4.50;;;;;;;;5072585;28;9836;-72
2023/07/16 01:20:08;;;;;;;;;6.50;6.50;;;;;;;;5072711;28;8792;-72
2023/07/16 01:22:52;;;;;;;;;4.00;3.25;;;;;;;;5072369;28;8800;-72
2023/07/16 01:25:20;;;;;;;;;3.00;3.00;;;;;;;;5072469;28;8878;-71
2023/07/16 01:28:10;;;;;;;;;8.75;6.00;;;;;;;;5072358;28;9802;-72
2023/07/16 01:30:37;;;;;;;;;7.50;5.25;;;;;;;;5071283;28;9828;-73
2023/07/16 01:33:03;;;;;;;;;3.50;3.50;;;;;;;;5072704;28;9864;-73
2023/07/16 01:35:29;;;;;;;;;7.00;5.25;;;;;;;;5072211;28;9882;-73
2023/07/16 01:37:54;;;;;;;;;7.00;5.00;;;;;;;;5072431;28;9915;-72
2023/07/16 01:40:19;;;;;;;;;5.00;4.75;;;;;;;;5072749;28;8815;-72
2023/07/16 01:42:44;;;;;;;;;7.25;5.50;;;;;;;;5072707;28;8777;-73
2023/07/16 01:45:09;;;;;;;;;6.75;5.75;;;;;;;;5073139;28;8808;-72
2023/07/16 01:47:41;;;;;;;;;4.75;4.75;;;;;;;;5071463;28;8828;-73
2023/07/16 01:50:06;;;;;;;;;5.50;4.25;;;;;;;;5072528;28;8905;-73
2023/07/16 01:52:31;;;;;;;;;5.50;5.50;;;;;;;;5071949;28;9719;-73
2023/07/16 01:54:57;;;;;;;;;7.25;5.00;;;;;;;;5072288;28;9557;-72
2023/07/16 01:57:22;;;;;;;;;5.25;5.25;;;;;;;;5071972;28;8805;-73
2023/07/16 01:59:47;;;;;;;;;7.25;5.25;;;;;;;;5072139;28;8796;-73
2023/07/16 02:02:12;;;;;;;;;7.00;7.00;;;;;;;;5069457;28;8820;-73
2023/07/16 02:04:37;;;;;;;;;5.50;5.50;;;;;;;;5071704;28;9647;-73
2023/07/16 02:07:03;;;;;;;;;8.25;6.50;;;;;;;;5070190;28;8828;-73
2023/07/16 02:09:29;;;;;;;;;7.00;6.75;;;;;;;;5071494;28;8839;-73
2023/07/16 02:11:54;;;;;;;;;6.25;4.50;;;;;;;;5071953;28;8792;-73
2023/07/16 02:14:19;;;;;;;;;7.00;5.75;;;;;;;;5071767;28;8808;-73
2023/07/16 02:16:44;;;;;;;;;7.50;4.50;;;;;;;;5071759;28;8796;-73
2023/07/16 02:19:10;;;;;;;;;7.25;7.00;;;;;;;;5071560;28;8964;-73
2023/07/16 02:21:35;;;;;;;;;5.00;5.00;;;;;;;;5071676;28;8824;-73
2023/07/16 02:24:00;;;;;;;;;2.75;2.75;;;;;;;;5071733;28;8855;-73
2023/07/16 02:26:25;;;;;;;;;7.50;5.00;;;;;;;;5071520;28;8820;-73
2023/07/16 02:28:51;;;;;;;;;4.25;4.25;;;;;;;;5071458;28;8832;-73
2023/07/16 02:31:16;;;;;;;;;4.00;4.00;;;;;;;;5043272;28;45344;-73
2023/07/16 02:33:41;;;;;;;;;4.25;3.75;;;;;;;;5035632;28;45298;-73
2023/07/16 02:36:06;;;;;;;;;3.75;3.75;;;;;;;;5033637;28;47413;-73
2023/07/16 02:38:32;;;;;;;;;5.50;5.00;;;;;;;;5035817;28;45446;-73
2023/07/16 02:40:57;;;;;;;;;5.00;5.00;;;;;;;;5035884;28;45285;-73
2023/07/16 02:43:22;;;;;;;;;8.25;4.50;;;;;;;;5035677;28;45306;-73
2023/07/16 02:45:47;;;;;;;;;5.25;5.25;;;;;;;;5035681;28;45423;-73
2023/07/16 02:48:13;;;;;;;;;4.50;3.75;;;;;;;;5035300;28;45407;-72
2023/07/16 02:50:38;;;;;;;;;6.25;6.25;;;;;;;;5035572;28;45395;-73
2023/07/16 02:53:04;;;;;;;;;3.75;3.75;;;;;;;;5035570;28;45445;-73
2023/07/16 02:55:29;;;;;;;;;5.00;2.00;;;;;;;;5035445;28;46240;-73
2023/07/16 02:57:54;;;;;;;;;5.75;4.50;;;;;;;;5035260;28;45396;-72
2023/07/16 03:00:20;;;;;;;;;5.50;4.00;;;;;;;;5035564;28;45341;-72
2023/07/16 03:02:45;;;;;;;;;9.50;6.00;;;;;;;;5035108;28;45332;-72
2023/07/16 03:05:10;;;;;;;;;3.25;3.25;;;;;;;;5033826;28;47415;-73
2023/07/16 03:07:35;;;;;;;;;4.25;4.00;;;;;;;;5035250;28;45306;-73
2023/07/16 03:10:00;;;;;;;;;3.50;3.50;;;;;;;;5035133;28;45411;-72
2023/07/16 03:12:26;;;;;;;;;6.50;3.75;;;;;;;;5035343;28;45370;-73
2023/07/16 03:14:54;;;;;;;;;4.25;4.25;;;;;;;;5035129;28;46093;-73
2023/07/16 03:17:19;;;;;;;;;4.50;4.00;;;;;;;;5035154;28;45281;-73
2023/07/16 03:19:44;;;;;;;;;6.00;5.25;;;;;;;;5035294;28;45362;-73
2023/07/16 03:22:09;;;;;;;;;4.00;4.00;;;;;;;;5034151;28;45592;-73
2023/07/16 03:24:34;;;;;;;;;7.25;5.00;;;;;;;;5033535;28;47366;-73
2023/07/16 03:27:00;;;;;;;;;3.50;3.50;;;;;;;;5033959;28;45430;-73
2023/07/16 03:29:25;;;;;;;;;7.25;5.25;;;;;;;;5034911;28;45404;-73
2023/07/16 03:31:50;;;;;;;;;4.00;4.00;;;;;;;;5035418;28;45339;-72
2023/07/16 03:34:15;;;;;;;;;6.00;5.00;;;;;;;;5034924;28;46381;-73
2023/07/16 03:36:40;;;;;;;;;5.75;4.00;;;;;;;;5034828;28;45348;-73
2023/07/16 03:39:06;;;;;;;;;4.00;4.00;;;;;;;;5035552;28;45376;-73
2023/07/16 03:41:31;;;;;;;;;5.00;3.50;;;;;;;;5035145;28;45495;-75
2023/07/16 03:43:56;;;;;;;;;5.00;4.00;;;;;;;;5034804;28;47027;-72
2023/07/16 03:46:21;;;;;;;;;3.75;3.00;;;;;;;;5034853;28;45313;-73
2023/07/16 03:48:46;;;;;;;;;3.75;3.75;;;;;;;;5036477;28;45454;-72
2023/07/16 03:51:12;;;;;;;;;6.00;5.25;;;;;;;;5032616;28;45480;-72
2023/07/16 03:53:37;;;;;;;;;9.00;7.00;;;;;;;;5038163;28;46007;-73
2023/07/16 03:56:02;;;;;;;;;4.50;4.00;;;;;;;;5038025;28;45481;-73
2023/07/16 03:58:29;;;;;;;;;5.75;5.75;;;;;;;;5038374;28;45416;-72
2023/07/16 04:00:54;;;;;;;;;5.25;5.00;;;;;;;;5037819;28;45403;-73
2023/07/16 04:03:19;;;;;;;;;5.00;4.00;;;;;;;;5037822;28;45500;-73
2023/07/16 04:05:44;;;;;;;;;5.75;4.00;;;;;;;;5036568;28;45471;-73
2023/07/16 04:08:10;;;;;;;;;4.00;4.00;;;;;;;;5038197;28;45496;-73
2023/07/16 04:10:35;;;;;;;;;4.50;4.50;;;;;;;;5038078;28;45304;-73
2023/07/16 04:13:00;;;;;;;;;6.50;6.25;;;;;;;;5037996;28;45930;-73
2023/07/16 04:15:26;;;;;;;;;5.00;5.00;;;;;;;;5036336;28;45481;-73
2023/07/16 04:17:51;;;;;;;;;5.00;5.00;;;;;;;;5038188;28;45383;-73
2023/07/16 04:20:16;;;;;;;;;4.75;4.75;;;;;;;;5038108;28;45342;-72
2023/07/16 04:22:41;;;;;;;;;4.00;4.00;;;;;;;;5037782;28;46215;-73
2023/07/16 04:25:07;;;;;;;;;3.75;3.00;;;;;;;;5037817;28;45322;-72
2023/07/16 04:27:32;;;;;;;;;4.50;3.00;;;;;;;;5037905;28;45458;-72
2023/07/16 04:29:57;;;;;;;;;5.25;4.50;;;;;;;;5037471;28;45323;-72
2023/07/16 04:32:23;;;;;;;;;4.00;4.00;;;;;;;;5037526;28;46130;-72
2023/07/16 04:34:48;;;;;;;;;5.75;4.00;;;;;;;;5036279;28;45398;-72
2023/07/16 04:37:13;;;;;;;;;4.25;3.75;;;;;;;;5037612;28;45404;-74
2023/07/16 04:39:38;;;;;;;;;10.25;5.75;;;;;;;;5036582;28;45421;-72
2023/07/16 04:42:04;;;;;;;;;6.75;4.50;;;;;;;;5037560;28;46361;-73
2023/07/16 04:44:29;;;;;;;;;5.75;5.00;;;;;;;;5037429;28;45328;-72
2023/07/16 04:46:54;;;;;;;;;5.75;5.50;;;;;;;;5037619;28;45351;-73
2023/07/16 04:49:19;;;;;;;;;5.25;5.25;;;;;;;;5037381;28;45574;-74
2023/07/16 04:51:44;;;;;;;;;6.50;6.00;;;;;;;;5035949;28;47102;-72
2023/07/16 04:54:10;;;;;;;;;5.00;5.00;;;;;;;;5037438;28;45353;-72
2023/07/16 04:56:35;;;;;;;;;5.75;4.75;;;;;;;;5036005;28;45302;-72
2023/07/16 04:59:00;;;;;;;;;6.00;5.00;;;;;;;;5035290;28;45439;-72
2023/07/16 05:01:26;;;;;;;;;8.25;6.00;;;;;;;;5037072;28;45315;-72
2023/07/16 05:03:52;;;;;;;;;9.00;5.50;;;;;;;;5037076;28;45630;-73
2023/07/16 05:06:17;;;;;;;;;5.75;5.75;;;;;;;;5037087;28;45416;-72
2023/07/16 05:08:42;;;;;;;;;6.00;4.75;;;;;;;;5036846;28;45452;-73
2023/07/16 05:11:07;;;;;;;;;6.50;5.75;;;;;;;;5037063;28;45527;-72
2023/07/16 05:13:33;;;;;;;;;7.25;7.00;;;;;;;;5035471;28;45578;-72
2023/07/16 05:15:58;;;;;;;;;9.00;7.25;;;;;;;;5037031;28;45316;-73
2023/07/16 05:18:23;;;;;;;;;5.50;5.00;;;;;;;;5037008;28;45566;-73
2023/07/16 05:20:49;;;;;;;;;9.75;9.00;;;;;;;;5036851;28;46120;-73
2023/07/16 05:23:14;;;;;;;;;10.25;6.50;;;;;;;;5037206;28;45410;-73
2023/07/16 05:25:44;;;;;;;;;6.50;5.25;;;;;;;;5036042;28;45738;-73
2023/07/16 05:28:10;;;;;;;;;6.00;6.00;;;;;;;;5036676;28;45375;-73
2023/07/16 05:30:35;;;;;;;;;7.75;5.00;;;;;;;;5036630;28;45350;-73
2023/07/16 05:33:00;;;;;;;;;9.75;9.75;;;;;;;;5036580;28;45330;-72
2023/07/16 05:35:25;;;;;;;;;8.00;5.75;;;;;;;;5036841;28;45297;-73
2023/07/16 05:37:50;;;;;;;;;5.25;4.75;;;;;;;;5036918;28;45704;-73
2023/07/16 05:40:16;;;;;;;;;10.50;5.75;;;;;;;;5036636;28;45445;-73
2023/07/16 05:42:41;;;;;;;;;6.25;4.50;;;;;;;;5036479;28;45411;-74
2023/07/16 05:45:06;;;;;;;;;7.25;5.00;;;;;;;;5036745;28;45438;-73
2023/07/16 05:47:31;;;;;;;;;4.50;4.50;;;;;;;;5036666;28;45380;-73
2023/07/16 05:49:56;;;;;;;;;5.50;5.50;;;;;;;;5036329;28;46345;-73
2023/07/16 05:52:22;;;;;;;;;8.00;7.00;;;;;;;;5036735;28;45678;-73
2023/07/16 05:54:47;;;;;;;;;5.75;5.00;;;;;;;;5036456;28;45419;-73
2023/07/16 05:57:12;;;;;;;;;5.50;4.75;;;;;;;;5036150;28;45517;-72
2023/07/16 05:59:37;;;;;;;;;4.00;4.00;;;;;;;;5036573;28;45504;-72
2023/07/16 06:02:03;;;;;;;;;4.00;3.50;;;;;;;;5036090;28;45467;-73
2023/07/16 06:04:28;;;;;;;;;9.25;6.75;;;;;;;;5034949;28;45428;-73
2023/07/16 06:06:54;;;;;;;;;4.00;4.00;;;;;;;;5036384;28;45423;-73
2023/07/16 06:09:19;;;;;;;;;6.75;5.50;;;;;;;;5036169;28;46360;-73
2023/07/16 06:11:46;;;;;;;;;9.00;5.00;;;;;;;;5033725;28;45372;-73
2023/07/16 06:14:11;;;;;;;;;9.00;5.25;;;;;;;;5036595;28;45332;-73
2023/07/16 06:16:36;;;;;;;;;6.25;4.25;;;;;;;;5037739;28;45373;-73
2023/07/16 06:19:01;;;;;;;;;5.25;5.00;;;;;;;;5036198;28;47004;-73
2023/07/16 06:21:27;;;;;;;;;9.50;5.00;;;;;;;;5036079;28;45392;-73
2023/07/16 06:23:52;;;;;;;;;5.00;4.50;;;;;;;;5035018;28;45372;-73
2023/07/16 06:26:17;;;;;;;;;3.75;3.75;;;;;;;;5035818;28;45350;-73
2023/07/16 06:28:42;;;;;;;;;7.50;6.25;;;;;;;;5035793;28;46285;-73
2023/07/16 06:31:08;;;;;;;;;5.50;5.25;;;;;;;;5036148;28;45412;-73
2023/07/16 06:33:33;;;;;;;;;9.00;5.50;;;;;;;;5035739;28;45318;-73
2023/07/16 06:35:58;;;;;;;;;7.00;6.00;;;;;;;;5035946;28;45351;-73
2023/07/16 06:38:23;;;;;;;;;8.00;6.75;;;;;;;;5035656;28;47332;-72
2023/07/16 06:40:49;;;;;;;;;4.75;4.75;;;;;;;;5035265;28;45351;-72
2023/07/16 06:43:15;;;;;;;;;3.25;3.25;;;;;;;;5036095;28;45364;-72
2023/07/16 06:45:40;;;;;;;;;5.00;3.25;;;;;;;;5036164;28;45315;-73
2023/07/16 06:48:05;;;;;;;;;6.25;5.00;;;;;;;;5035635;28;45359;-73
2023/07/16 06:50:31;;;;;;;;;6.00;5.25;;;;;;;;5035801;28;45277;-73
2023/07/16 06:52:56;;;;;;;;;4.00;4.00;;;;;;;;5035906;28;45539;-73
2023/07/16 06:55:21;;;;;;;;;4.00;4.00;;;;;;;;5035316;28;45487;-73
2023/07/16 06:57:46;;;;;;;;;5.25;5.25;;;;;;;;5036005;28;45320;-73
2023/07/16 07:00:11;;;;;;;;;4.25;4.25;;;;;;;;5034474;28;45324;-72
2023/07/16 07:02:37;;;;;;;;;5.75;4.50;;;;;;;;5035231;28;45281;-75
2023/07/16 07:05:02;;;;;;;;;6.50;5.00;;;;;;;;5034674;28;45379;-73
2023/07/16 07:07:27;;;;;;;;;6.00;5.00;;;;;;;;5036026;28;46334;-73
2023/07/16 07:09:52;;;;;;;;;2.50;2.50;;;;;;;;5035048;28;45414;-73
2023/07/16 07:12:17;;;;;;;;;5.50;5.50;;;;;;;;5035373;28;45320;-73
2023/07/16 07:14:43;;;;;;;;;8.50;5.00;;;;;;;;5034098;28;45631;-71
2023/07/16 07:17:08;;;;;;;;;5.50;4.50;;;;;;;;5035026;28;47042;-72
2023/07/16 07:19:33;;;;;;;;;5.00;4.25;;;;;;;;5035021;28;45393;-72
2023/07/16 07:21:58;;;;;;;;;3.75;3.75;;;;;;;;5034844;28;45387;-70
2023/07/16 07:24:24;;;;;;;;;5.25;4.25;;;;;;;;5034871;28;45346;-72
2023/07/16 07:26:49;;;;;;;;;6.00;4.75;;;;;;;;5035052;28;45510;-73
2023/07/16 07:29:14;;;;;;;;;6.50;6.50;;;;;;;;5034927;28;45526;-73
2023/07/16 07:31:39;;;;;;;;;4.50;4.00;;;;;;;;5035149;28;45336;-73
2023/07/16 07:34:04;;;;;;;;;4.50;4.50;;;;;;;;5034803;28;45446;-72
2023/07/16 07:36:30;;;;;;;;;4.50;3.50;;;;;;;;5033629;28;47427;-71
2023/07/16 07:38:55;;;;;;;;;3.00;3.00;;;;;;;;5034822;28;45335;-73
2023/07/16 07:41:20;;;;;;;;;4.75;4.75;;;;;;;;5034968;28;45400;-73
2023/07/16 07:43:45;;;;;;;;;3.50;3.50;;;;;;;;5035092;28;45320;-73
2023/07/16 07:46:10;;;;;;;;;3.50;2.50;;;;;;;;5034708;28;46285;-73
2023/07/16 07:48:36;;;;;;;;;4.00;3.50;;;;;;;;5033395;28;45319;-73
2023/07/16 07:51:01;;;;;;;;;5.25;3.00;;;;;;;;5034944;28;45379;-72
2023/07/16 07:53:26;;;;;;;;;4.50;4.50;;;;;;;;5034570;28;45480;-73
2023/07/16 07:55:52;;;;;;;;;3.25;3.25;;;;;;;;5034816;28;45509;-72
2023/07/16 07:58:17;;;;;;;;;5.25;4.00;;;;;;;;5034788;28;45412;-72
2023/07/16 08:00:42;;;;;;;;;2.25;2.00;;;;;;;;5034602;28;45470;-73
2023/07/16 08:03:08;;;;;;;;;3.25;3.25;;;;;;;;5034724;28;45297;-72
2023/07/16 08:05:33;;;;;;;;;5.25;3.00;;;;;;;;5032862;28;47488;-73
2023/07/16 08:07:59;;;;;;;;;5.00;2.25;;;;;;;;5034660;28;45365;-73
2023/07/16 08:10:24;;;;;;;;;9.00;5.00;;;;;;;;5034614;28;45402;-74
2023/07/16 08:12:49;;;;;;;;;4.25;3.75;;;;;;;;5034330;28;45281;-73
2023/07/16 08:15:14;;;;;;;;;3.75;3.75;;;;;;;;5034201;28;45441;-72
2023/07/16 08:17:41;;;;;;;;;4.50;4.00;;;;;;;;5034165;28;45242;-73
2023/07/16 08:20:06;;;;;;;;;4.50;4.50;;;;;;;;5034691;28;45440;-73
2023/07/16 08:22:32;;;;;;;;;2.00;2.00;;;;;;;;5034149;28;45328;-73
2023/07/16 08:24:57;;;;;;;;;3.75;2.75;;;;;;;;5034120;28;46229;-73
2023/07/16 08:27:22;;;;;;;;;3.50;2.25;;;;;;;;5034040;28;45446;-74
2023/07/16 08:29:47;;;;;;;;;6.50;3.00;;;;;;;;5034344;28;45404;-73
2023/07/16 08:32:13;;;;;;;;;3.00;3.00;;;;;;;;5034470;28;45443;-73
2023/07/16 08:34:38;;;;;;;;;3.00;3.00;;;;;;;;5035036;28;46247;-73
2023/07/16 08:37:03;;;;;;;;;2.25;2.00;;;;;;;;5037534;28;45415;-74
2023/07/16 08:39:28;;;;;;;;;5.25;3.75;;;;;;;;5037670;28;45389;-73
2023/07/16 08:41:54;;;;;;;;;4.00;3.00;;;;;;;;5037386;28;45429;-73
2023/07/16 08:44:20;;;;;;;;;3.50;3.50;;;;;;;;5037305;28;47061;-73
2023/07/16 08:46:45;;;;;;;;;6.25;5.00;;;;;;;;5037291;28;45481;-72
2023/07/16 08:49:10;;;;;;;;;3.50;2.50;;;;;;;;5036252;28;45413;-72
2023/07/16 08:51:36;;;;;;;;;5.00;4.00;;;;;;;;5036921;28;45415;-73
2023/07/16 08:54:01;;;;;;;;;4.50;2.75;;;;;;;;5035752;28;48448;-73
2023/07/16 08:56:26;;;;;;;;;6.25;4.50;;;;;;;;5036014;28;45567;-72
2023/07/16 08:58:54;;;;;;;;;8.00;3.50;;;;;;;;5037517;28;45350;-73
2023/07/16 09:01:19;;;;;;;;;4.25;2.00;;;;;;;;5037276;28;45391;-72
2023/07/16 09:03:44;;;;;;;;;2.75;2.75;;;;;;;;5036914;28;45630;-73
2023/07/16 09:06:09;;;;;;;;;2.75;2.75;;;;;;;;5036975;28;45363;-73
2023/07/16 09:08:34;;;;;;;;;5.75;3.25;;;;;;;;5037057;28;45317;-73
2023/07/16 09:11:00;;;;;;;;;4.50;2.50;;;;;;;;5037192;28;45323;-72
2023/07/16 09:13:27;;;;;;;;;2.50;2.50;;;;;;;;5036801;28;45359;-73
2023/07/16 09:15:57;;;;;;;;;3.50;2.75;;;;;;;;5035578;28;45472;-73
2023/07/16 09:18:22;;;;;;;;;4.00;4.00;;;;;;;;5035840;28;45448;-73
2023/07/16 09:20:48;;;;;;;;;4.00;2.00;;;;;;;;5037103;28;45253;-73
2023/07/16 09:23:16;;;;;;;;;2.75;2.75;;;;;;;;5035404;28;46783;-74
2023/07/16 09:25:42;;;;;;;;;5.00;3.00;;;;;;;;5036580;28;45445;-74
2023/07/16 09:28:07;;;;;;;;;2.50;2.50;;;;;;;;5036697;28;45479;-73
2023/07/16 09:30:33;;;;;;;;;4.75;2.50;;;;;;;;5036725;28;45410;-74
2023/07/16 09:33:08;;;;;;;;;3.00;3.00;;;;;;;;5036461;28;46672;-74
2023/07/16 09:35:35;;;;;;;;;3.00;2.00;;;;;;;;5036452;28;45442;-74
2023/07/16 09:38:00;;;;;;;;;1.00;1.00;;;;;;;;5036831;28;45334;-75
2023/07/16 09:40:25;;;;;;;;;5.50;3.25;;;;;;;;5036849;28;45426;-76
2023/07/16 09:42:52;;;;;;;;;3.25;3.00;;;;;;;;5036332;28;46338;-74
2023/07/16 09:45:18;;;;;;;;;2.00;2.00;;;;;;;;5036409;28;45595;-73
2023/07/16 09:47:43;;;;;;;;;2.50;1.00;;;;;;;;5036851;28;45328;-74
2023/07/16 09:50:09;;;;;;;;;2.00;2.00;;;;;;;;5036821;28;45300;-79
2023/07/16 09:52:34;;;;;;;;;2.75;2.75;;;;;;;;5036624;28;47483;-81
2023/07/16 09:55:01;;;;;;;;;2.25;2.25;;;;;;;;5034168;28;45333;-79
2023/07/16 09:57:28;;;;;;;;;5.00;4.00;;;;;;;;5036496;28;45518;-80
2023/07/16 09:59:56;;;;;;;;;3.00;2.25;;;;;;;;5036617;28;45480;-86
2023/07/16 10:02:21;;;;;;;;;8.25;6.00;;;;;;;;5035958;28;46517;-81
2023/07/16 10:04:46;;;;;;;;;34.50;30.50;;;;;;;;5034486;28;45473;-80
2023/07/16 10:07:26;;;;;;;;;3.50;3.50;;;;;;;;5036201;28;45506;-81
2023/07/16 10:09:56;;;;;;;;;6.00;6.00;;;;;;;;5036707;28;45441;-81
2023/07/16 10:12:22;;;;;;;;;4.00;2.00;;;;;;;;5035735;28;46589;-80
2023/07/16 10:14:50;;;;;;;;;3.00;3.00;;;;;;;;5035855;28;45527;-79
2023/07/16 10:17:21;;;;;;;;;2.50;2.50;;;;;;;;5035990;28;45395;-77
2023/07/16 10:19:46;;;;;;;;;3.25;3.25;;;;;;;;5035459;28;45503;-80
2023/07/16 10:22:12;;;;;;;;;2.75;2.75;;;;;;;;5035828;28;46620;-80
2023/07/16 10:24:38;;;;;;;;;4.00;2.75;;;;;;;;5036780;28;45375;-81
2023/07/16 10:27:04;;;;;;;;;2.50;2.50;;;;;;;;5036345;28;45407;-81
2023/07/16 10:29:29;;;;;;;;;2.25;2.25;;;;;;;;5036436;28;45406;-79
2023/07/16 10:31:55;;;;;;;;;3.50;2.50;;;;;;;;5035070;28;46341;-79
2023/07/16 10:34:22;;;;;;;;;3.50;3.00;;;;;;;;5036240;28;45340;-79
2023/07/16 10:36:49;;;;;;;;;1.50;1.50;;;;;;;;5035617;28;45598;-80
2023/07/16 10:39:15;;;;;;;;;4.75;2.50;;;;;;;;5035971;28;45593;-78
2023/07/16 10:41:40;;;;;;;;;3.50;3.00;;;;;;;;5035331;28;46054;-81
2023/07/16 10:44:07;;;;;;;;;3.00;2.25;;;;;;;;5035782;28;45608;-80
2023/07/16 10:46:33;;;;;;;;;1.25;1.25;;;;;;;;5035169;28;45384;-80
2023/07/16 10:48:58;;;;;;;;;2.75;1.50;;;;;;;;5035393;28;45434;-80
2023/07/16 10:51:26;;;;;;;;;3.00;3.00;;;;;;;;5035228;28;45774;-78
2023/07/16 10:53:54;;;;;;;;;2.00;2.00;;;;;;;;5035168;28;45344;-77
2023/07/16 10:56:20;;;;;;;;;4.00;2.25;;;;;;;;5035324;28;45378;-78
2023/07/16 10:58:45;;;;;;;;;1.25;1.25;;;;;;;;5038818;28;45426;-88
2023/07/16 11:01:11;;;;;;;;;2.75;2.75;;;;;;;;5039895;28;45905;-91
2023/07/16 11:03:36;;;;;;;;;4.25;4.25;;;;;;;;5035267;28;45534;-77
2023/07/16 11:06:08;;;;;;;;;4.00;4.00;;;;;;;;5033055;28;45395;-77
2023/07/16 11:08:33;;;;;;;;;5.50;5.50;;;;;;;;5033135;28;45483;-76
2023/07/16 11:10:59;;;;;;;;;5.25;3.25;;;;;;;;5033730;28;45917;-76
2023/07/16 11:13:27;;;;;;;;;1.00;1.00;;;;;;;;5033680;28;45440;-77
2023/07/16 11:15:52;;;;;;;;;6.50;3.50;;;;;;;;5034342;28;45488;-76
2023/07/16 11:18:18;;;;;;;;;2.25;2.25;;;;;;;;5034314;28;45465;-76
2023/07/16 11:20:43;;;;;;;;;35.00;31.75;;;;;;;;5034098;28;45392;-76
2023/07/16 11:23:10;;;;;;;;;11.00;11.00;;;;;;;;5034020;28;45411;-82
2023/07/16 11:25:35;;;;;;;;;22.25;20.00;;;;;;;;5033680;28;45505;-76
2023/07/16 11:28:01;;;;;;;;;24.00;23.75;;;;;;;;5033995;28;45450;-76
2023/07/16 11:30:27;;;;;;;;;11.25;6.50;;;;;;;;5032534;28;46126;-75
2023/07/16 11:32:52;;;;;;;;;3.00;3.00;;;;;;;;5032332;28;45509;-75
2023/07/16 11:35:18;;;;;;;;;2.00;2.00;;;;;;;;5034356;28;46050;-76
2023/07/16 11:37:44;;;;;;;;;1.25;1.00;;;;;;;;5033560;28;45804;-76
2023/07/16 11:40:11;;;;;;;;;7.00;5.50;;;;;;;;5032582;28;47963;-77
2023/07/16 11:42:37;;;;;;;;;6.50;6.00;;;;;;;;5034055;28;45434;-76
2023/07/16 11:45:03;;;;;;;;;5.50;5.00;;;;;;;;5033519;28;45453;-76
2023/07/16 11:47:28;;;;;;;;;3.00;3.00;;;;;;;;5033782;28;45460;-77
2023/07/16 11:49:54;;;;;;;;;4.25;4.00;;;;;;;;5033561;28;45654;-76
2023/07/16 11:52:20;;;;;;;;;3.00;3.00;;;;;;;;5032097;28;45418;-76
2023/07/16 11:54:46;;;;;;;;;2.75;2.25;;;;;;;;5033658;28;45447;-78
2023/07/16 11:57:11;;;;;;;;;3.50;3.25;;;;;;;;5033792;28;45358;-77
2023/07/16 11:59:36;;;;;;;;;2.00;2.00;;;;;;;;5034580;28;45590;-76
2023/07/16 12:02:02;;;;;;;;;3.00;3.00;;;;;;;;5032067;28;45800;-74
2023/07/16 12:04:28;;;;;;;;;3.25;3.00;;;;;;;;5033382;28;45726;-75
2023/07/16 12:06:53;;;;;;;;;2.75;2.25;;;;;;;;5033913;28;45501;-75
2023/07/16 12:09:18;;;;;;;;;6.00;3.00;;;;;;;;5034290;28;45914;-74
2023/07/16 12:11:43;;;;;;;;;4.75;2.00;;;;;;;;5037300;28;45583;-75
2023/07/16 12:14:08;;;;;;;;;2.00;2.00;;;;;;;;5036936;28;45627;-75
2023/07/16 12:16:34;;;;;;;;;3.00;3.00;;;;;;;;5037347;28;45544;-79
2023/07/16 12:18:59;;;;;;;;;2.50;2.50;;;;;;;;5037986;28;45569;-80
2023/07/16 12:21:24;;;;;;;;;3.00;2.00;;;;;;;;5037924;28;45464;-77
2023/07/16 12:23:49;;;;;;;;;2.75;2.50;;;;;;;;5038304;28;45447;-78
2023/07/16 12:26:14;;;;;;;;;4.25;3.50;;;;;;;;5038329;28;45474;-75
2023/07/16 12:28:40;;;;;;;;;2.75;2.00;;;;;;;;5037280;28;46233;-74
2023/07/16 12:31:05;;;;;;;;;2.00;2.00;;;;;;;;5036467;28;45467;-75
2023/07/16 12:33:30;;;;;;;;;6.00;2.50;;;;;;;;5036793;28;45499;-75
2023/07/16 12:35:56;;;;;;;;;3.25;2.75;;;;;;;;5036560;28;45455;-73
2023/07/16 12:38:22;;;;;;;;;3.75;3.00;;;;;;;;5036601;28;46302;-76
2023/07/16 12:40:47;;;;;;;;;4.00;4.00;;;;;;;;5036311;28;45411;-75
2023/07/16 12:43:12;;;;;;;;;4.25;4.25;;;;;;;;5035945;28;45367;-75
2023/07/16 12:45:38;;;;;;;;;1.75;1.75;;;;;;;;5036644;28;45434;-75
2023/07/16 12:48:03;;;;;;;;;2.75;2.75;;;;;;;;5036270;28;45514;-75
2023/07/16 12:50:29;;;;;;;;;3.50;3.50;;;;;;;;5035989;28;45380;-72
2023/07/16 12:52:54;;;;;;;;;2.25;1.75;;;;;;;;5034939;28;45448;-75
2023/07/16 12:55:19;;;;;;;;;0.75;0.00;;;;;;;;5034969;28;45461;-75
2023/07/16 12:57:44;;;;;;;;;3.25;3.25;;;;;;;;5035573;28;45445;-75
2023/07/16 13:00:10;;;;;;;;;1.50;1.50;;;;;;;;5036129;28;45529;-75
2023/07/16 13:02:36;;;;;;;;;5.25;5.00;;;;;;;;5035983;28;45447;-74
2023/07/16 13:05:01;;;;;;;;;2.00;2.00;;;;;;;;5035797;28;45560;-74
2023/07/16 13:07:27;;;;;;;;;2.25;2.25;;;;;;;;5036138;28;45470;-75
2023/07/16 13:09:52;;;;;;;;;2.75;2.75;;;;;;;;5035480;28;45440;-75
2023/07/16 13:12:17;;;;;;;;;3.00;2.00;;;;;;;;5034564;28;45404;-75
2023/07/16 13:14:42;;;;;;;;;5.75;3.50;;;;;;;;5035887;28;45474;-75
2023/07/16 13:17:08;;;;;;;;;4.50;4.25;;;;;;;;5035912;28;46077;-76
2023/07/16 13:19:33;;;;;;;;;2.00;2.00;;;;;;;;5035725;28;45371;-72
2023/07/16 13:21:58;;;;;;;;;3.50;3.50;;;;;;;;5035132;28;45348;-74
2023/07/16 13:24:25;;;;;;;;;6.75;5.75;;;;;;;;5017959;28;45578;-72
2023/07/16 13:26:50;;;;;;;;;2.25;2.25;;;;;;;;5035507;28;46437;-74
2023/07/16 13:29:15;;;;;;;;;6.75;5.25;;;;;;;;5035519;28;45549;-74
2023/07/16 13:31:41;;;;;;;;;5.50;3.00;;;;;;;;5035809;28;45595;-74
2023/07/16 13:34:06;;;;;;;;;3.25;3.00;;;;;;;;5035434;28;45432;-75
2023/07/16 13:36:31;;;;;;;;;3.75;3.25;;;;;;;;5035198;28;46121;-75
2023/07/16 13:38:56;;;;;;;;;3.75;3.75;;;;;;;;5035296;28;45498;-74
2023/07/16 13:41:21;;;;;;;;;5.25;3.50;;;;;;;;5034120;28;45421;-73
2023/07/16 13:43:47;;;;;;;;;3.25;1.75;;;;;;;;5035658;28;45453;-75
2023/07/16 13:46:12;;;;;;;;;4.25;2.00;;;;;;;;5035423;28;46054;-74
2023/07/16 13:48:38;;;;;;;;;4.00;3.25;;;;;;;;5033681;28;45540;-76
2023/07/16 13:51:03;;;;;;;;;2.25;1.75;;;;;;;;5035402;28;45397;-75
2023/07/16 13:53:28;;;;;;;;;4.50;3.50;;;;;;;;5035213;28;45444;-76
2023/07/16 13:55:54;;;;;;;;;1.25;1.00;;;;;;;;5034967;28;45401;-75
2023/07/16 13:58:19;;;;;;;;;4.25;3.25;;;;;;;;5035674;28;45403;-75
2023/07/16 14:00:44;;;;;;;;;4.25;2.50;;;;;;;;5035197;28;45400;-74
2023/07/16 14:03:09;;;;;;;;;3.00;2.25;;;;;;;;5034968;28;45509;-75
2023/07/16 14:05:38;;;;;;;;;3.00;3.00;;;;;;;;5034749;28;45900;-74
2023/07/16 14:08:03;;;;;;;;;4.50;4.50;;;;;;;;5033805;28;45544;-74
2023/07/16 14:10:29;;;;;;;;;7.00;6.00;;;;;;;;5035020;28;45455;-75
2023/07/16 14:12:54;;;;;;;;;2.25;2.25;;;;;;;;5035453;28;45373;-76
2023/07/16 14:15:19;;;;;;;;;7.25;3.75;;;;;;;;5034408;28;45631;-76
2023/07/16 14:17:44;;;;;;;;;4.00;4.00;;;;;;;;5034848;28;45669;-73
2023/07/16 14:20:10;;;;;;;;;2.00;2.00;;;;;;;;5035476;28;45514;-74
2023/07/16 14:22:35;;;;;;;;;2.25;2.25;;;;;;;;5034850;28;45375;-75
2023/07/16 14:25:00;;;;;;;;;1.75;1.75;;;;;;;;5034702;28;45547;-75
2023/07/16 14:27:26;;;;;;;;;2.50;1.25;;;;;;;;5033178;28;45458;-75
2023/07/16 14:29:51;;;;;;;;;3.50;2.25;;;;;;;;5033435;28;45410;-76
2023/07/16 14:32:16;;;;;;;;;5.25;2.00;;;;;;;;5034009;28;45517;-76
2023/07/16 14:34:41;;;;;;;;;3.75;2.75;;;;;;;;5034609;28;45704;-75
2023/07/16 14:37:06;;;;;;;;;2.50;2.50;;;;;;;;5034959;28;45674;-76